sensor_id;sensor_type;location;lat;lon;timestamp;P1;durP1;ratioP1;P2;durP2;ratioP2
5121;SDS011;2563;52.242;7.956;2023-04-25T00:01:10;17.23;;;3.57;;
5121;SDS011;2563;52.242;7.956;2023-04-25T00:03:38;13.40;;;2.50;;
5121;SDS011;2563;52.242;7.956;2023-04-25T00:06:04;7.07;;;2.63;;
5121;SDS011;2563;52.242;7.956;2023-04-25T00:08:29;8.67;;;2.97;;
5121;SDS011;2563;52.242;7.956;2023-04-25T00:10:56;9.20;;;2.70;;
5121;SDS011;2563;52.242;7.956;2023-04-25T00:13:21;10.40;;;3.80;;
5121;SDS011;2563;52.242;7.956;2023-04-25T00:15:47;8.23;;;2.20;;
5121;SDS011;2563;52.242;7.956;2023-04-25T00:18:13;11.47;;;3.63;;
5121;SDS011;2563;52.242;7.956;2023-04-25T00:20:39;14.27;;;3.10;;
5121;SDS011;2563;52.242;7.956;2023-04-25T00:23:04;8.57;;;2.40;;
5121;SDS011;2563;52.242;7.956;2023-04-25T00:25:30;8.70;;;3.23;;
5121;SDS011;2563;52.242;7.956;2023-04-25T00:27:55;9.13;;;2.60;;
5121;SDS011;2563;52.242;7.956;2023-04-25T00:30:20;5.10;;;2.10;;
5121;SDS011;2563;52.242;7.956;2023-04-25T00:32:46;7.80;;;2.23;;
5121;SDS011;2563;52.242;7.956;2023-04-25T00:35:11;7.33;;;2.20;;
5121;SDS011;2563;52.242;7.956;2023-04-25T00:37:36;6.23;;;2.60;;
5121;SDS011;2563;52.242;7.956;2023-04-25T00:40:04;7.80;;;2.70;;
5121;SDS011;2563;52.242;7.956;2023-04-25T00:42:31;7.63;;;2.87;;
5121;SDS011;2563;52.242;7.956;2023-04-25T00:44:57;5.77;;;2.10;;
5121;SDS011;2563;52.242;7.956;2023-04-25T00:47:24;10.57;;;2.73;;
5121;SDS011;2563;52.242;7.956;2023-04-25T00:49:50;8.80;;;2.77;;
5121;SDS011;2563;52.242;7.956;2023-04-25T00:52:16;10.27;;;2.73;;
5121;SDS011;2563;52.242;7.956;2023-04-25T00:54:41;8.53;;;2.40;;
5121;SDS011;2563;52.242;7.956;2023-04-25T00:57:07;5.60;;;2.20;;
5121;SDS011;2563;52.242;7.956;2023-04-25T00:59:33;13.33;;;3.20;;
5121;SDS011;2563;52.242;7.956;2023-04-25T01:01:58;16.00;;;3.67;;
5121;SDS011;2563;52.242;7.956;2023-04-25T01:04:24;18.03;;;2.70;;
5121;SDS011;2563;52.242;7.956;2023-04-25T01:06:52;6.67;;;2.47;;
5121;SDS011;2563;52.242;7.956;2023-04-25T01:09:17;6.57;;;2.17;;
5121;SDS011;2563;52.242;7.956;2023-04-25T01:11:44;12.33;;;2.60;;
5121;SDS011;2563;52.242;7.956;2023-04-25T01:14:09;11.50;;;2.77;;
5121;SDS011;2563;52.242;7.956;2023-04-25T01:16:35;9.50;;;3.33;;
5121;SDS011;2563;52.242;7.956;2023-04-25T01:19:01;6.80;;;2.37;;
5121;SDS011;2563;52.242;7.956;2023-04-25T01:21:28;19.73;;;3.90;;
5121;SDS011;2563;52.242;7.956;2023-04-25T01:23:55;14.33;;;3.70;;
5121;SDS011;2563;52.242;7.956;2023-04-25T01:26:21;12.30;;;2.83;;
5121;SDS011;2563;52.242;7.956;2023-04-25T01:28:48;16.33;;;3.50;;
5121;SDS011;2563;52.242;7.956;2023-04-25T01:31:14;12.20;;;3.60;;
5121;SDS011;2563;52.242;7.956;2023-04-25T01:33:40;14.77;;;4.03;;
5121;SDS011;2563;52.242;7.956;2023-04-25T01:36:05;22.77;;;3.80;;
5121;SDS011;2563;52.242;7.956;2023-04-25T01:38:31;19.83;;;3.40;;
5121;SDS011;2563;52.242;7.956;2023-04-25T01:40:56;15.17;;;2.77;;
5121;SDS011;2563;52.242;7.956;2023-04-25T01:43:22;12.83;;;3.00;;
5121;SDS011;2563;52.242;7.956;2023-04-25T01:45:48;17.53;;;2.90;;
5121;SDS011;2563;52.242;7.956;2023-04-25T01:48:15;17.63;;;3.73;;
5121;SDS011;2563;52.242;7.956;2023-04-25T01:50:40;13.13;;;3.17;;
5121;SDS011;2563;52.242;7.956;2023-04-25T01:53:06;17.97;;;3.60;;
5121;SDS011;2563;52.242;7.956;2023-04-25T01:55:33;12.20;;;2.80;;
5121;SDS011;2563;52.242;7.956;2023-04-25T01:57:59;17.30;;;3.57;;
5121;SDS011;2563;52.242;7.956;2023-04-25T02:00:26;15.17;;;2.83;;
5121;SDS011;2563;52.242;7.956;2023-04-25T02:02:51;21.00;;;3.10;;
5121;SDS011;2563;52.242;7.956;2023-04-25T02:05:18;15.03;;;3.43;;
5121;SDS011;2563;52.242;7.956;2023-04-25T02:07:44;15.37;;;3.77;;
5121;SDS011;2563;52.242;7.956;2023-04-25T02:10:09;15.10;;;3.70;;
5121;SDS011;2563;52.242;7.956;2023-04-25T02:12:35;10.77;;;2.70;;
5121;SDS011;2563;52.242;7.956;2023-04-25T02:15:01;14.27;;;3.13;;
5121;SDS011;2563;52.242;7.956;2023-04-25T02:17:26;24.90;;;3.63;;
5121;SDS011;2563;52.242;7.956;2023-04-25T02:19:52;13.70;;;3.40;;
5121;SDS011;2563;52.242;7.956;2023-04-25T02:22:17;12.00;;;2.83;;
5121;SDS011;2563;52.242;7.956;2023-04-25T02:24:42;15.03;;;2.90;;
5121;SDS011;2563;52.242;7.956;2023-04-25T02:27:08;14.53;;;3.10;;
5121;SDS011;2563;52.242;7.956;2023-04-25T02:29:33;11.50;;;3.27;;
5121;SDS011;2563;52.242;7.956;2023-04-25T02:31:58;12.80;;;3.33;;
5121;SDS011;2563;52.242;7.956;2023-04-25T02:34:24;21.20;;;3.53;;
5121;SDS011;2563;52.242;7.956;2023-04-25T02:36:49;16.73;;;4.80;;
5121;SDS011;2563;52.242;7.956;2023-04-25T02:39:16;12.97;;;3.73;;
5121;SDS011;2563;52.242;7.956;2023-04-25T02:41:41;17.53;;;3.20;;
5121;SDS011;2563;52.242;7.956;2023-04-25T02:44:07;13.73;;;3.37;;
5121;SDS011;2563;52.242;7.956;2023-04-25T02:46:32;14.70;;;3.60;;
5121;SDS011;2563;52.242;7.956;2023-04-25T02:48:57;14.80;;;3.17;;
5121;SDS011;2563;52.242;7.956;2023-04-25T02:51:23;13.00;;;3.47;;
5121;SDS011;2563;52.242;7.956;2023-04-25T02:53:48;23.40;;;3.50;;
5121;SDS011;2563;52.242;7.956;2023-04-25T02:56:13;14.50;;;2.40;;
5121;SDS011;2563;52.242;7.956;2023-04-25T02:58:39;10.80;;;2.70;;
5121;SDS011;2563;52.242;7.956;2023-04-25T03:01:04;9.90;;;2.20;;
5121;SDS011;2563;52.242;7.956;2023-04-25T03:03:30;14.40;;;3.50;;
5121;SDS011;2563;52.242;7.956;2023-04-25T03:05:55;21.60;;;2.83;;
5121;SDS011;2563;52.242;7.956;2023-04-25T03:08:20;11.23;;;2.90;;
5121;SDS011;2563;52.242;7.956;2023-04-25T03:10:46;17.83;;;3.03;;
5121;SDS011;2563;52.242;7.956;2023-04-25T03:13:11;10.03;;;2.60;;
5121;SDS011;2563;52.242;7.956;2023-04-25T03:15:37;9.70;;;2.73;;
5121;SDS011;2563;52.242;7.956;2023-04-25T03:18:02;16.10;;;2.97;;
5121;SDS011;2563;52.242;7.956;2023-04-25T03:20:28;10.30;;;2.40;;
5121;SDS011;2563;52.242;7.956;2023-04-25T03:22:53;10.50;;;3.33;;
5121;SDS011;2563;52.242;7.956;2023-04-25T03:25:19;12.83;;;3.30;;
5121;SDS011;2563;52.242;7.956;2023-04-25T03:27:44;24.97;;;3.97;;
5121;SDS011;2563;52.242;7.956;2023-04-25T03:30:10;19.20;;;3.33;;
5121;SDS011;2563;52.242;7.956;2023-04-25T03:32:36;18.50;;;3.53;;
5121;SDS011;2563;52.242;7.956;2023-04-25T03:35:01;20.93;;;4.50;;
5121;SDS011;2563;52.242;7.956;2023-04-25T03:37:26;17.63;;;3.27;;
5121;SDS011;2563;52.242;7.956;2023-04-25T03:39:52;17.43;;;3.40;;
5121;SDS011;2563;52.242;7.956;2023-04-25T03:42:17;17.40;;;3.57;;
5121;SDS011;2563;52.242;7.956;2023-04-25T03:44:43;13.23;;;3.40;;
5121;SDS011;2563;52.242;7.956;2023-04-25T03:47:08;28.53;;;4.73;;
5121;SDS011;2563;52.242;7.956;2023-04-25T03:49:34;12.70;;;3.33;;
5121;SDS011;2563;52.242;7.956;2023-04-25T03:52:00;18.67;;;4.20;;
5121;SDS011;2563;52.242;7.956;2023-04-25T03:54:26;12.87;;;3.50;;
5121;SDS011;2563;52.242;7.956;2023-04-25T03:56:51;18.70;;;5.70;;
5121;SDS011;2563;52.242;7.956;2023-04-25T03:59:16;19.10;;;3.80;;
5121;SDS011;2563;52.242;7.956;2023-04-25T04:01:42;14.60;;;4.57;;
5121;SDS011;2563;52.242;7.956;2023-04-25T04:04:07;11.57;;;3.63;;
5121;SDS011;2563;52.242;7.956;2023-04-25T04:06:32;14.23;;;3.67;;
5121;SDS011;2563;52.242;7.956;2023-04-25T04:08:58;8.87;;;3.47;;
5121;SDS011;2563;52.242;7.956;2023-04-25T04:11:24;16.07;;;3.67;;
5121;SDS011;2563;52.242;7.956;2023-04-25T04:13:49;17.13;;;4.00;;
5121;SDS011;2563;52.242;7.956;2023-04-25T04:16:15;15.60;;;3.70;;
5121;SDS011;2563;52.242;7.956;2023-04-25T04:18:40;29.97;;;2.97;;
5121;SDS011;2563;52.242;7.956;2023-04-25T04:21:05;13.03;;;2.83;;
5121;SDS011;2563;52.242;7.956;2023-04-25T04:23:31;13.70;;;2.80;;
5121;SDS011;2563;52.242;7.956;2023-04-25T04:25:56;13.17;;;3.60;;
5121;SDS011;2563;52.242;7.956;2023-04-25T04:28:22;10.20;;;2.93;;
5121;SDS011;2563;52.242;7.956;2023-04-25T04:30:47;16.23;;;4.37;;
5121;SDS011;2563;52.242;7.956;2023-04-25T04:33:13;20.00;;;3.67;;
5121;SDS011;2563;52.242;7.956;2023-04-25T04:35:40;11.90;;;3.20;;
5121;SDS011;2563;52.242;7.956;2023-04-25T04:38:06;21.83;;;5.80;;
5121;SDS011;2563;52.242;7.956;2023-04-25T04:40:32;17.00;;;3.67;;
5121;SDS011;2563;52.242;7.956;2023-04-25T04:42:57;13.10;;;3.43;;
5121;SDS011;2563;52.242;7.956;2023-04-25T04:45:23;12.07;;;3.37;;
5121;SDS011;2563;52.242;7.956;2023-04-25T04:47:49;9.50;;;2.93;;
5121;SDS011;2563;52.242;7.956;2023-04-25T04:50:15;26.00;;;4.40;;
5121;SDS011;2563;52.242;7.956;2023-04-25T04:52:41;14.40;;;3.60;;
5121;SDS011;2563;52.242;7.956;2023-04-25T04:55:07;15.53;;;4.10;;
5121;SDS011;2563;52.242;7.956;2023-04-25T04:57:33;17.87;;;3.27;;
5121;SDS011;2563;52.242;7.956;2023-04-25T04:59:59;15.73;;;2.93;;
5121;SDS011;2563;52.242;7.956;2023-04-25T05:02:25;16.60;;;3.07;;
5121;SDS011;2563;52.242;7.956;2023-04-25T05:04:50;9.30;;;3.20;;
5121;SDS011;2563;52.242;7.956;2023-04-25T05:07:16;20.67;;;4.37;;
5121;SDS011;2563;52.242;7.956;2023-04-25T05:09:42;13.97;;;3.37;;
5121;SDS011;2563;52.242;7.956;2023-04-25T05:12:08;14.87;;;3.03;;
5121;SDS011;2563;52.242;7.956;2023-04-25T05:14:33;23.53;;;3.57;;
5121;SDS011;2563;52.242;7.956;2023-04-25T05:16:58;11.70;;;3.40;;
5121;SDS011;2563;52.242;7.956;2023-04-25T05:19:24;19.47;;;3.80;;
5121;SDS011;2563;52.242;7.956;2023-04-25T05:21:50;16.67;;;3.30;;
5121;SDS011;2563;52.242;7.956;2023-04-25T05:24:15;15.03;;;2.80;;
5121;SDS011;2563;52.242;7.956;2023-04-25T05:26:41;17.53;;;3.27;;
5121;SDS011;2563;52.242;7.956;2023-04-25T05:29:06;18.10;;;3.53;;
5121;SDS011;2563;52.242;7.956;2023-04-25T05:31:31;11.97;;;2.90;;
5121;SDS011;2563;52.242;7.956;2023-04-25T05:33:57;11.60;;;2.50;;
5121;SDS011;2563;52.242;7.956;2023-04-25T05:36:23;25.73;;;4.27;;
5121;SDS011;2563;52.242;7.956;2023-04-25T05:38:48;20.90;;;3.00;;
5121;SDS011;2563;52.242;7.956;2023-04-25T05:41:13;12.37;;;3.00;;
5121;SDS011;2563;52.242;7.956;2023-04-25T05:43:39;13.73;;;3.70;;
5121;SDS011;2563;52.242;7.956;2023-04-25T05:46:10;14.37;;;2.67;;
5121;SDS011;2563;52.242;7.956;2023-04-25T05:48:35;12.83;;;2.80;;
5121;SDS011;2563;52.242;7.956;2023-04-25T05:51:00;17.83;;;3.50;;
5121;SDS011;2563;52.242;7.956;2023-04-25T05:53:26;14.20;;;2.93;;
5121;SDS011;2563;52.242;7.956;2023-04-25T05:55:51;16.07;;;3.73;;
5121;SDS011;2563;52.242;7.956;2023-04-25T05:58:16;11.23;;;2.87;;
5121;SDS011;2563;52.242;7.956;2023-04-25T06:00:42;14.63;;;3.20;;
5121;SDS011;2563;52.242;7.956;2023-04-25T06:03:07;18.70;;;3.17;;
5121;SDS011;2563;52.242;7.956;2023-04-25T06:05:34;17.83;;;3.63;;
5121;SDS011;2563;52.242;7.956;2023-04-25T06:08:00;15.90;;;2.97;;
5121;SDS011;2563;52.242;7.956;2023-04-25T06:10:26;26.53;;;3.70;;
5121;SDS011;2563;52.242;7.956;2023-04-25T06:12:51;19.60;;;3.20;;
5121;SDS011;2563;52.242;7.956;2023-04-25T06:15:17;11.03;;;3.27;;
5121;SDS011;2563;52.242;7.956;2023-04-25T06:17:42;9.17;;;2.17;;
5121;SDS011;2563;52.242;7.956;2023-04-25T06:20:07;18.90;;;3.60;;
5121;SDS011;2563;52.242;7.956;2023-04-25T06:22:33;13.60;;;3.50;;
5121;SDS011;2563;52.242;7.956;2023-04-25T06:24:59;12.97;;;2.60;;
5121;SDS011;2563;52.242;7.956;2023-04-25T06:27:25;11.47;;;2.50;;
5121;SDS011;2563;52.242;7.956;2023-04-25T06:29:50;20.67;;;3.50;;
5121;SDS011;2563;52.242;7.956;2023-04-25T06:32:16;11.77;;;2.40;;
5121;SDS011;2563;52.242;7.956;2023-04-25T06:34:43;15.33;;;2.90;;
5121;SDS011;2563;52.242;7.956;2023-04-25T06:37:08;10.80;;;2.57;;
5121;SDS011;2563;52.242;7.956;2023-04-25T06:39:33;10.97;;;2.30;;
5121;SDS011;2563;52.242;7.956;2023-04-25T06:41:59;9.70;;;2.60;;
5121;SDS011;2563;52.242;7.956;2023-04-25T06:44:24;11.00;;;2.47;;
5121;SDS011;2563;52.242;7.956;2023-04-25T06:46:51;10.13;;;2.33;;
5121;SDS011;2563;52.242;7.956;2023-04-25T06:49:16;16.67;;;2.00;;
5121;SDS011;2563;52.242;7.956;2023-04-25T06:51:42;14.13;;;2.67;;
5121;SDS011;2563;52.242;7.956;2023-04-25T06:54:07;9.97;;;2.10;;
5121;SDS011;2563;52.242;7.956;2023-04-25T06:56:32;18.13;;;2.70;;
5121;SDS011;2563;52.242;7.956;2023-04-25T06:58:58;17.67;;;2.40;;
5121;SDS011;2563;52.242;7.956;2023-04-25T07:01:25;15.17;;;2.10;;
5121;SDS011;2563;52.242;7.956;2023-04-25T07:03:50;8.60;;;1.80;;
5121;SDS011;2563;52.242;7.956;2023-04-25T07:06:16;9.03;;;2.00;;
5121;SDS011;2563;52.242;7.956;2023-04-25T07:08:41;7.87;;;1.60;;
5121;SDS011;2563;52.242;7.956;2023-04-25T07:11:06;11.53;;;1.90;;
5121;SDS011;2563;52.242;7.956;2023-04-25T07:13:32;9.63;;;1.90;;
5121;SDS011;2563;52.242;7.956;2023-04-25T07:15:57;13.90;;;2.53;;
5121;SDS011;2563;52.242;7.956;2023-04-25T07:18:22;10.83;;;1.93;;
5121;SDS011;2563;52.242;7.956;2023-04-25T07:20:48;7.50;;;1.70;;
5121;SDS011;2563;52.242;7.956;2023-04-25T07:23:13;10.83;;;2.00;;
5121;SDS011;2563;52.242;7.956;2023-04-25T07:25:39;6.60;;;1.77;;
5121;SDS011;2563;52.242;7.956;2023-04-25T07:28:04;9.70;;;1.83;;
5121;SDS011;2563;52.242;7.956;2023-04-25T07:30:30;11.40;;;1.80;;
5121;SDS011;2563;52.242;7.956;2023-04-25T07:32:55;13.70;;;1.97;;
5121;SDS011;2563;52.242;7.956;2023-04-25T07:35:21;10.70;;;1.90;;
5121;SDS011;2563;52.242;7.956;2023-04-25T07:37:46;16.53;;;2.20;;
5121;SDS011;2563;52.242;7.956;2023-04-25T07:40:11;11.10;;;2.10;;
5121;SDS011;2563;52.242;7.956;2023-04-25T07:42:37;9.00;;;2.10;;
5121;SDS011;2563;52.242;7.956;2023-04-25T07:45:02;10.73;;;1.73;;
5121;SDS011;2563;52.242;7.956;2023-04-25T07:47:28;6.63;;;1.83;;
5121;SDS011;2563;52.242;7.956;2023-04-25T07:49:54;6.53;;;1.43;;
5121;SDS011;2563;52.242;7.956;2023-04-25T07:52:19;9.70;;;1.40;;
5121;SDS011;2563;52.242;7.956;2023-04-25T07:54:44;8.07;;;2.20;;
5121;SDS011;2563;52.242;7.956;2023-04-25T07:57:10;14.83;;;2.73;;
5121;SDS011;2563;52.242;7.956;2023-04-25T07:59:35;11.40;;;1.73;;
5121;SDS011;2563;52.242;7.956;2023-04-25T08:02:01;7.93;;;2.37;;
5121;SDS011;2563;52.242;7.956;2023-04-25T08:04:27;10.50;;;2.57;;
5121;SDS011;2563;52.242;7.956;2023-04-25T08:06:52;11.43;;;2.37;;
5121;SDS011;2563;52.242;7.956;2023-04-25T08:09:18;5.10;;;1.60;;
5121;SDS011;2563;52.242;7.956;2023-04-25T08:11:44;7.70;;;1.87;;
5121;SDS011;2563;52.242;7.956;2023-04-25T08:14:10;7.23;;;1.20;;
5121;SDS011;2563;52.242;7.956;2023-04-25T08:16:36;4.40;;;1.60;;
5121;SDS011;2563;52.242;7.956;2023-04-25T08:19:02;8.00;;;1.60;;
5121;SDS011;2563;52.242;7.956;2023-04-25T08:21:27;8.07;;;1.63;;
5121;SDS011;2563;52.242;7.956;2023-04-25T08:23:52;5.90;;;1.80;;
5121;SDS011;2563;52.242;7.956;2023-04-25T08:26:18;9.40;;;1.43;;
5121;SDS011;2563;52.242;7.956;2023-04-25T08:28:43;7.60;;;1.07;;
5121;SDS011;2563;52.242;7.956;2023-04-25T08:31:09;8.33;;;2.03;;
5121;SDS011;2563;52.242;7.956;2023-04-25T08:33:35;8.97;;;2.00;;
5121;SDS011;2563;52.242;7.956;2023-04-25T08:36:00;16.47;;;1.53;;
5121;SDS011;2563;52.242;7.956;2023-04-25T08:38:26;5.87;;;1.47;;
5121;SDS011;2563;52.242;7.956;2023-04-25T08:40:51;5.83;;;1.67;;
5121;SDS011;2563;52.242;7.956;2023-04-25T08:43:18;3.40;;;1.20;;
5121;SDS011;2563;52.242;7.956;2023-04-25T08:45:44;8.87;;;1.73;;
5121;SDS011;2563;52.242;7.956;2023-04-25T08:48:11;5.93;;;1.30;;
5121;SDS011;2563;52.242;7.956;2023-04-25T08:50:55;5.27;;;1.50;;
5121;SDS011;2563;52.242;7.956;2023-04-25T08:53:22;12.63;;;1.53;;
5121;SDS011;2563;52.242;7.956;2023-04-25T08:55:56;10.47;;;2.00;;
5121;SDS011;2563;52.242;7.956;2023-04-25T08:58:22;9.60;;;1.30;;
5121;SDS011;2563;52.242;7.956;2023-04-25T09:00:48;7.40;;;1.17;;
5121;SDS011;2563;52.242;7.956;2023-04-25T09:03:15;7.93;;;1.67;;
5121;SDS011;2563;52.242;7.956;2023-04-25T09:05:41;8.67;;;1.47;;
5121;SDS011;2563;52.242;7.956;2023-04-25T09:08:07;6.60;;;1.67;;
5121;SDS011;2563;52.242;7.956;2023-04-25T09:10:33;8.10;;;1.17;;
5121;SDS011;2563;52.242;7.956;2023-04-25T09:13:44;4.53;;;1.23;;
5121;SDS011;2563;52.242;7.956;2023-04-25T09:15:55;7.30;;;1.40;;
5121;SDS011;2563;52.242;7.956;2023-04-25T09:20:48;4.43;;;1.67;;
5121;SDS011;2563;52.242;7.956;2023-04-25T09:23:13;14.93;;;2.20;;
5121;SDS011;2563;52.242;7.956;2023-04-25T09:25:40;14.97;;;2.30;;
5121;SDS011;2563;52.242;7.956;2023-04-25T09:28:05;8.30;;;1.53;;
5121;SDS011;2563;52.242;7.956;2023-04-25T09:30:32;3.40;;;1.33;;
5121;SDS011;2563;52.242;7.956;2023-04-25T09:33:09;14.63;;;2.13;;
5121;SDS011;2563;52.242;7.956;2023-04-25T09:35:36;8.93;;;1.83;;
5121;SDS011;2563;52.242;7.956;2023-04-25T09:38:07;9.83;;;2.00;;
5121;SDS011;2563;52.242;7.956;2023-04-25T09:40:39;11.13;;;1.90;;
5121;SDS011;2563;52.242;7.956;2023-04-25T09:43:09;11.70;;;1.90;;
5121;SDS011;2563;52.242;7.956;2023-04-25T09:45:48;9.10;;;2.00;;
5121;SDS011;2563;52.242;7.956;2023-04-25T09:48:19;6.70;;;1.97;;
5121;SDS011;2563;52.242;7.956;2023-04-25T09:51:08;9.30;;;1.90;;
5121;SDS011;2563;52.242;7.956;2023-04-25T09:53:42;11.77;;;2.50;;
5121;SDS011;2563;52.242;7.956;2023-04-25T09:56:09;8.93;;;2.37;;
5121;SDS011;2563;52.242;7.956;2023-04-25T09:58:37;12.10;;;1.70;;
5121;SDS011;2563;52.242;7.956;2023-04-25T10:01:07;5.43;;;1.40;;
5121;SDS011;2563;52.242;7.956;2023-04-25T10:03:34;8.33;;;1.83;;
5121;SDS011;2563;52.242;7.956;2023-04-25T10:06:01;5.10;;;1.40;;
5121;SDS011;2563;52.242;7.956;2023-04-25T10:08:33;12.00;;;2.10;;
5121;SDS011;2563;52.242;7.956;2023-04-25T10:11:00;4.93;;;1.40;;
5121;SDS011;2563;52.242;7.956;2023-04-25T10:13:27;7.00;;;1.27;;
5121;SDS011;2563;52.242;7.956;2023-04-25T10:15:54;9.07;;;1.70;;
5121;SDS011;2563;52.242;7.956;2023-04-25T10:23:25;7.80;;;1.73;;
5121;SDS011;2563;52.242;7.956;2023-04-25T10:25:55;7.60;;;1.60;;
5121;SDS011;2563;52.242;7.956;2023-04-25T10:28:21;7.60;;;1.57;;
5121;SDS011;2563;52.242;7.956;2023-04-25T10:30:57;10.33;;;1.20;;
5121;SDS011;2563;52.242;7.956;2023-04-25T10:33:29;3.20;;;1.40;;
5121;SDS011;2563;52.242;7.956;2023-04-25T10:36:14;4.93;;;1.33;;
5121;SDS011;2563;52.242;7.956;2023-04-25T10:38:44;6.50;;;1.80;;
5121;SDS011;2563;52.242;7.956;2023-04-25T10:41:11;10.83;;;1.70;;
5121;SDS011;2563;52.242;7.956;2023-04-25T10:43:41;8.43;;;2.17;;
5121;SDS011;2563;52.242;7.956;2023-04-25T10:46:24;5.60;;;1.50;;
5121;SDS011;2563;52.242;7.956;2023-04-25T10:48:52;6.07;;;1.40;;
5121;SDS011;2563;52.242;7.956;2023-04-25T10:51:25;7.27;;;1.37;;
5121;SDS011;2563;52.242;7.956;2023-04-25T10:58:52;3.57;;;1.33;;
5121;SDS011;2563;52.242;7.956;2023-04-25T11:01:29;6.77;;;1.43;;
5121;SDS011;2563;52.242;7.956;2023-04-25T11:04:01;6.50;;;1.30;;
5121;SDS011;2563;52.242;7.956;2023-04-25T11:09:11;5.90;;;1.30;;
5121;SDS011;2563;52.242;7.956;2023-04-25T11:11:40;12.37;;;1.70;;
5121;SDS011;2563;52.242;7.956;2023-04-25T11:14:06;4.17;;;1.63;;
5121;SDS011;2563;52.242;7.956;2023-04-25T11:16:32;6.10;;;1.53;;
5121;SDS011;2563;52.242;7.956;2023-04-25T11:18:57;8.07;;;1.63;;
5121;SDS011;2563;52.242;7.956;2023-04-25T11:21:25;7.63;;;1.80;;
5121;SDS011;2563;52.242;7.956;2023-04-25T11:23:51;5.80;;;1.33;;
5121;SDS011;2563;52.242;7.956;2023-04-25T11:26:18;6.17;;;1.83;;
5121;SDS011;2563;52.242;7.956;2023-04-25T11:28:45;5.17;;;1.23;;
5121;SDS011;2563;52.242;7.956;2023-04-25T11:31:11;3.03;;;1.10;;
5121;SDS011;2563;52.242;7.956;2023-04-25T11:33:36;9.53;;;1.10;;
5121;SDS011;2563;52.242;7.956;2023-04-25T11:36:01;6.80;;;1.40;;
5121;SDS011;2563;52.242;7.956;2023-04-25T11:38:27;6.60;;;1.90;;
5121;SDS011;2563;52.242;7.956;2023-04-25T11:40:53;12.47;;;1.40;;
5121;SDS011;2563;52.242;7.956;2023-04-25T11:43:21;3.53;;;1.20;;
5121;SDS011;2563;52.242;7.956;2023-04-25T11:45:48;4.73;;;1.53;;
5121;SDS011;2563;52.242;7.956;2023-04-25T11:48:14;10.40;;;1.50;;
5121;SDS011;2563;52.242;7.956;2023-04-25T11:50:40;4.17;;;1.17;;
5121;SDS011;2563;52.242;7.956;2023-04-25T11:53:05;5.30;;;1.10;;
5121;SDS011;2563;52.242;7.956;2023-04-25T11:55:31;3.43;;;1.13;;
5121;SDS011;2563;52.242;7.956;2023-04-25T11:57:59;4.77;;;1.53;;
5121;SDS011;2563;52.242;7.956;2023-04-25T12:00:25;3.17;;;1.27;;
5121;SDS011;2563;52.242;7.956;2023-04-25T12:02:55;11.00;;;1.40;;
5121;SDS011;2563;52.242;7.956;2023-04-25T12:05:28;7.87;;;1.00;;
5121;SDS011;2563;52.242;7.956;2023-04-25T12:07:56;4.00;;;1.20;;
5121;SDS011;2563;52.242;7.956;2023-04-25T12:10:24;2.37;;;0.80;;
5121;SDS011;2563;52.242;7.956;2023-04-25T12:12:50;4.40;;;0.80;;
5121;SDS011;2563;52.242;7.956;2023-04-25T12:15:16;2.90;;;1.00;;
5121;SDS011;2563;52.242;7.956;2023-04-25T12:17:46;2.00;;;0.87;;
5121;SDS011;2563;52.242;7.956;2023-04-25T12:20:14;7.03;;;2.57;;
5121;SDS011;2563;52.242;7.956;2023-04-25T12:22:44;2.60;;;1.00;;
5121;SDS011;2563;52.242;7.956;2023-04-25T12:25:12;5.70;;;2.03;;
5121;SDS011;2563;52.242;7.956;2023-04-25T12:33:35;4.67;;;1.57;;
5121;SDS011;2563;52.242;7.956;2023-04-25T12:36:02;3.30;;;1.40;;
5121;SDS011;2563;52.242;7.956;2023-04-25T12:38:35;6.70;;;1.00;;
5121;SDS011;2563;52.242;7.956;2023-04-25T12:41:02;8.13;;;1.60;;
5121;SDS011;2563;52.242;7.956;2023-04-25T12:43:27;6.50;;;1.30;;
5121;SDS011;2563;52.242;7.956;2023-04-25T12:45:55;5.47;;;1.20;;
5121;SDS011;2563;52.242;7.956;2023-04-25T12:48:22;3.10;;;1.30;;
5121;SDS011;2563;52.242;7.956;2023-04-25T12:50:48;2.93;;;0.80;;
5121;SDS011;2563;52.242;7.956;2023-04-25T12:53:15;5.03;;;1.10;;
5121;SDS011;2563;52.242;7.956;2023-04-25T12:55:41;6.53;;;1.00;;
5121;SDS011;2563;52.242;7.956;2023-04-25T12:58:06;3.20;;;1.03;;
5121;SDS011;2563;52.242;7.956;2023-04-25T13:00:42;4.70;;;0.93;;
5121;SDS011;2563;52.242;7.956;2023-04-25T13:03:13;7.20;;;1.50;;
5121;SDS011;2563;52.242;7.956;2023-04-25T13:05:41;3.00;;;1.17;;
5121;SDS011;2563;52.242;7.956;2023-04-25T13:08:07;4.93;;;1.60;;
5121;SDS011;2563;52.242;7.956;2023-04-25T13:10:33;6.10;;;1.30;;
5121;SDS011;2563;52.242;7.956;2023-04-25T13:12:58;2.90;;;1.33;;
5121;SDS011;2563;52.242;7.956;2023-04-25T13:15:24;3.33;;;1.20;;
5121;SDS011;2563;52.242;7.956;2023-04-25T13:17:49;3.53;;;1.30;;
5121;SDS011;2563;52.242;7.956;2023-04-25T13:20:15;2.90;;;1.07;;
5121;SDS011;2563;52.242;7.956;2023-04-25T13:22:42;3.60;;;1.20;;
5121;SDS011;2563;52.242;7.956;2023-04-25T13:25:08;8.00;;;1.47;;
5121;SDS011;2563;52.242;7.956;2023-04-25T13:27:34;4.57;;;1.47;;
5121;SDS011;2563;52.242;7.956;2023-04-25T13:30:00;4.87;;;1.63;;
5121;SDS011;2563;52.242;7.956;2023-04-25T13:32:32;3.00;;;1.27;;
5121;SDS011;2563;52.242;7.956;2023-04-25T13:35:01;7.93;;;1.40;;
5121;SDS011;2563;52.242;7.956;2023-04-25T13:37:27;2.80;;;1.00;;
5121;SDS011;2563;52.242;7.956;2023-04-25T13:39:54;6.87;;;1.50;;
5121;SDS011;2563;52.242;7.956;2023-04-25T13:42:20;3.87;;;1.20;;
5121;SDS011;2563;52.242;7.956;2023-04-25T13:44:46;4.07;;;1.30;;
5121;SDS011;2563;52.242;7.956;2023-04-25T13:47:11;4.50;;;1.60;;
5121;SDS011;2563;52.242;7.956;2023-04-25T13:49:37;5.00;;;1.47;;
5121;SDS011;2563;52.242;7.956;2023-04-25T13:52:02;4.53;;;1.33;;
5121;SDS011;2563;52.242;7.956;2023-04-25T13:54:27;3.63;;;1.20;;
5121;SDS011;2563;52.242;7.956;2023-04-25T13:56:53;4.90;;;1.77;;
5121;SDS011;2563;52.242;7.956;2023-04-25T13:59:23;8.03;;;1.70;;
5121;SDS011;2563;52.242;7.956;2023-04-25T14:01:50;2.93;;;1.20;;
5121;SDS011;2563;52.242;7.956;2023-04-25T14:04:15;3.20;;;1.30;;
5121;SDS011;2563;52.242;7.956;2023-04-25T14:06:41;4.63;;;1.00;;
5121;SDS011;2563;52.242;7.956;2023-04-25T14:09:07;2.57;;;0.90;;
5121;SDS011;2563;52.242;7.956;2023-04-25T14:11:35;3.33;;;0.87;;
5121;SDS011;2563;52.242;7.956;2023-04-25T14:14:01;2.30;;;0.80;;
5121;SDS011;2563;52.242;7.956;2023-04-25T14:16:27;7.23;;;3.10;;
5121;SDS011;2563;52.242;7.956;2023-04-25T14:18:56;4.07;;;1.07;;
5121;SDS011;2563;52.242;7.956;2023-04-25T14:21:22;3.33;;;1.30;;
5121;SDS011;2563;52.242;7.956;2023-04-25T14:23:48;4.70;;;1.20;;
5121;SDS011;2563;52.242;7.956;2023-04-25T14:26:13;8.80;;;1.10;;
5121;SDS011;2563;52.242;7.956;2023-04-25T14:28:39;3.00;;;1.00;;
5121;SDS011;2563;52.242;7.956;2023-04-25T14:31:05;2.13;;;0.90;;
5121;SDS011;2563;52.242;7.956;2023-04-25T14:33:30;5.03;;;1.23;;
5121;SDS011;2563;52.242;7.956;2023-04-25T14:36:01;3.33;;;1.10;;
5121;SDS011;2563;52.242;7.956;2023-04-25T14:38:27;2.50;;;1.10;;
5121;SDS011;2563;52.242;7.956;2023-04-25T14:43:58;2.90;;;1.00;;
5121;SDS011;2563;52.242;7.956;2023-04-25T14:46:26;3.17;;;1.10;;
5121;SDS011;2563;52.242;7.956;2023-04-25T14:48:58;7.20;;;1.47;;
5121;SDS011;2563;52.242;7.956;2023-04-25T14:51:26;3.50;;;1.30;;
5121;SDS011;2563;52.242;7.956;2023-04-25T14:53:52;6.60;;;1.63;;
5121;SDS011;2563;52.242;7.956;2023-04-25T14:56:18;5.33;;;1.30;;
5121;SDS011;2563;52.242;7.956;2023-04-25T14:58:43;4.37;;;1.10;;
5121;SDS011;2563;52.242;7.956;2023-04-25T15:01:10;2.70;;;1.43;;
5121;SDS011;2563;52.242;7.956;2023-04-25T15:03:36;2.90;;;1.20;;
5121;SDS011;2563;52.242;7.956;2023-04-25T15:06:02;3.10;;;1.60;;
5121;SDS011;2563;52.242;7.956;2023-04-25T15:08:27;5.63;;;1.57;;
5121;SDS011;2563;52.242;7.956;2023-04-25T15:10:52;9.00;;;1.90;;
5121;SDS011;2563;52.242;7.956;2023-04-25T15:13:18;6.70;;;1.83;;
5121;SDS011;2563;52.242;7.956;2023-04-25T15:15:44;3.30;;;1.77;;
5121;SDS011;2563;52.242;7.956;2023-04-25T15:18:16;3.30;;;1.20;;
5121;SDS011;2563;52.242;7.956;2023-04-25T15:20:43;3.53;;;1.50;;
5121;SDS011;2563;52.242;7.956;2023-04-25T15:23:08;3.60;;;1.60;;
5121;SDS011;2563;52.242;7.956;2023-04-25T15:25:34;4.43;;;1.33;;
5121;SDS011;2563;52.242;7.956;2023-04-25T15:27:59;2.90;;;1.00;;